Time;durP1;ratioP1;P1;durP2;ratioP2;P2;SDS_P1;SDS_P2;PMS_P1;PMS_P2;Temp;Humidity;BMP_temperature;BMP_pressure;BME280_temperature;BME280_humidity;BME280_pressure;Samples;Min_cycle;Max_cycle;Signal;HPM_P1;HPM_P2
2023/08/24 00:00:10;;;;;;;;;;;;;;;16.30;46.18;95831.63;4972626;28;20437;-78
2023/08/24 00:02:35;;;;;;;;;;;;;;;16.23;46.69;95837.03;4972742;28;20309;-77
2023/08/24 00:05:01;;;;;;;;;;;;;;;16.24;46.43;95836.00;4975407;28;19985;-79
2023/08/24 00:07:26;;;;;;;;;;;;;;;16.22;46.81;95839.94;4975673;28;20342;-79
2023/08/24 00:09:54;;;;;;;;;;;;;;;16.21;46.94;95839.09;4974306;28;19964;-77
2023/08/24 00:12:20;;;;;;;;;;;;;;;16.26;47.00;95830.41;4973258;28;20048;-78
2023/08/24 00:14:45;;;;;;;;;;;;;;;16.33;47.39;95838.44;4975173;28;19925;-79
2023/08/24 00:17:10;;;;;;;;;;;;;;;16.40;46.62;95833.94;4975296;28;19929;-80
2023/08/24 00:19:36;;;;;;;;;;;;;;;16.41;47.09;95837.44;4975531;28;20331;-78
2023/08/24 00:22:01;;;;;;;;;;;;;;;16.41;46.46;95832.06;4953943;28;20457;-78
2023/08/24 00:24:26;;;;;;;;;;;;;;;16.37;46.32;95829.81;4976101;28;20745;-79
2023/08/24 00:26:51;;;;;;;;;;;;;;;16.27;47.06;95832.06;4976538;28;20416;-77
2023/08/24 00:29:17;;;;;;;;;;;;;;;16.25;47.67;95831.44;4975151;28;19925;-77
2023/08/24 00:31:42;;;;;;;;;;;;;;;16.30;46.93;95825.44;4976639;28;19926;-78
2023/08/24 00:34:07;;;;;;;;;;;;;;;16.36;47.16;95835.38;4976949;28;19928;-79
2023/08/24 00:36:33;;;;;;;;;;;;;;;16.39;46.86;95834.97;4976035;28;19967;-78
2023/08/24 00:38:58;;;;;;;;;;;;;;;16.41;46.33;95837.44;4976450;28;20399;-78
2023/08/24 00:41:25;;;;;;;;;;;;;;;16.35;47.62;95834.53;4977213;28;19933;-78
2023/08/24 00:43:50;;;;;;;;;;;;;;;16.39;46.99;95833.09;4981439;28;19972;-77
2023/08/24 00:46:15;;;;;;;;;;;;;;;16.36;47.09;95822.75;4980387;28;19925;-76
2023/08/24 00:48:40;;;;;;;;;;;;;;;16.35;47.42;95836.44;4981914;28;19926;-78
2023/08/24 00:51:06;;;;;;;;;;;;;;;16.38;46.66;95833.28;4982651;28;19977;-80
2023/08/24 00:53:31;;;;;;;;;;;;;;;16.37;47.07;95829.81;4983137;28;19944;-79
2023/08/24 00:55:56;;;;;;;;;;;;;;;16.35;46.41;95841.81;4979998;28;19930;-78
2023/08/24 00:58:21;;;;;;;;;;;;;;;16.36;46.46;95838.06;4981535;28;20327;-78
2023/08/24 01:00:48;;;;;;;;;;;;;;;16.30;46.43;95833.50;4980434;28;20398;-76
2023/08/24 01:03:13;;;;;;;;;;;;;;;16.28;47.23;95839.06;4954872;28;19988;-77
2023/08/24 01:05:39;;;;;;;;;;;;;;;16.29;46.64;95839.91;4977521;28;20009;-77
2023/08/24 01:08:04;;;;;;;;;;;;;;;16.25;46.73;95840.31;4977141;28;19964;-77
2023/08/24 01:10:33;;;;;;;;;;;;;;;16.18;47.04;95844.06;4975629;28;19922;-77
2023/08/24 01:13:08;;;;;;;;;;;;;;;15.98;47.29;95845.72;4975848;28;20122;-77
2023/08/24 01:15:44;;;;;;;;;;;;;;;15.95;47.66;95845.31;4974297;28;20559;-77
2023/08/24 01:18:11;;;;;;;;;;;;;;;15.97;47.96;95835.19;4973456;28;20227;-77
2023/08/24 01:20:36;;;;;;;;;;;;;;;15.99;48.22;95825.06;4974111;28;19922;-77
2023/08/24 01:23:17;;;;;;;;;;;;;;;16.05;47.83;95828.78;4974582;28;20034;-77
2023/08/24 01:25:48;;;;;;;;;;;;;;;16.06;47.52;95833.94;4959184;28;19976;-77
2023/08/24 01:28:14;;;;;;;;;;;;;;;16.07;47.37;95824.84;4976815;28;20345;-77
2023/08/24 01:30:39;;;;;;;;;;;;;;;16.07;47.13;95822.16;4974668;28;20008;-77
2023/08/24 01:33:04;;;;;;;;;;;;;;;16.01;47.68;95817.63;4975232;28;19922;-77
2023/08/24 01:35:30;;;;;;;;;;;;;;;16.03;48.01;95815.56;4976158;28;20328;-77
2023/08/24 01:37:55;;;;;;;;;;;;;;;16.03;46.98;95814.72;4975283;28;19918;-77
2023/08/24 01:40:22;;;;;;;;;;;;;;;15.96;47.73;95810.22;4974918;28;19963;-77
2023/08/24 01:42:53;;;;;;;;;;;;;;;15.97;47.42;95811.84;4974164;28;19926;-77
2023/08/24 01:45:19;;;;;;;;;;;;;;;15.95;47.26;95819.28;4979712;28;20420;-77
2023/08/24 01:47:45;;;;;;;;;;;;;;;15.97;47.21;95811.84;4974767;28;19977;-77
2023/08/24 01:50:10;;;;;;;;;;;;;;;15.98;47.58;95810.00;4958048;28;19989;-77
2023/08/24 01:52:35;;;;;;;;;;;;;;;15.96;47.19;95810.22;4974564;28;20016;-77
2023/08/24 01:55:00;;;;;;;;;;;;;;;15.85;47.63;95808.16;4976217;28;20119;-77
2023/08/24 01:57:26;;;;;;;;;;;;;;;15.82;47.80;95811.22;4976249;28;19965;-77
2023/08/24 01:59:51;;;;;;;;;;;;;;;15.84;47.66;95814.56;4976245;28;20239;-77
2023/08/24 02:02:16;;;;;;;;;;;;;;;15.81;47.67;95817.66;4976057;28;20093;-77
2023/08/24 02:04:42;;;;;;;;;;;;;;;15.80;47.77;95808.75;4973161;28;20326;-77
2023/08/24 02:07:07;;;;;;;;;;;;;;;15.89;48.47;95806.69;4958070;28;19934;-77
2023/08/24 02:09:32;;;;;;;;;;;;;;;15.96;48.12;95804.00;4976579;28;19957;-77
2023/08/24 02:11:57;;;;;;;;;;;;;;;16.03;47.96;95806.66;4973969;28;20076;-77
2023/08/24 02:14:23;;;;;;;;;;;;;;;16.03;47.37;95794.09;4976396;28;20292;-77
2023/08/24 02:16:48;;;;;;;;;;;;;;;16.00;47.68;95791.81;4974685;28;19953;-75
2023/08/24 02:19:13;;;;;;;;;;;;;;;15.97;48.39;95790.38;4971950;28;19952;-78
2023/08/24 02:21:39;;;;;;;;;;;;;;;16.06;47.76;95784.78;4975035;28;19956;-76
2023/08/24 02:24:04;;;;;;;;;;;;;;;16.05;47.18;95785.81;4956229;28;19926;-77
2023/08/24 02:26:29;;;;;;;;;;;;;;;15.98;47.05;95786.63;4975215;28;20406;-77
2023/08/24 02:28:55;;;;;;;;;;;;;;;16.00;46.77;95789.13;4955969;28;19918;-76
2023/08/24 02:31:20;;;;;;;;;;;;;;;15.91;47.89;95791.19;4976729;28;19929;-77
2023/08/24 02:33:45;;;;;;;;;;;;;;;15.96;47.18;95788.72;4976366;28;20461;-77
2023/08/24 02:36:10;;;;;;;;;;;;;;;15.97;47.22;95789.53;4974207;28;20150;-76
2023/08/24 02:38:36;;;;;;;;;;;;;;;16.00;47.24;95783.75;4976529;28;19984;-77
2023/08/24 02:41:04;;;;;;;;;;;;;;;16.07;48.20;95771.16;4974611;28;19922;-76
2023/08/24 02:43:30;;;;;;;;;;;;;;;16.19;47.64;95762.44;4970536;28;19932;-76
2023/08/24 02:45:59;;;;;;;;;;;;;;;16.26;47.33;95769.44;4974979;28;19926;-77
2023/08/24 02:48:24;;;;;;;;;;;;;;;16.27;46.85;95762.22;4967667;28;20264;-77
2023/08/24 02:50:49;;;;;;;;;;;;;;;16.26;46.90;95760.56;4973758;28;20246;-76
2023/08/24 02:53:15;;;;;;;;;;;;;;;16.31;47.00;95755.38;4974517;28;20399;-77
2023/08/24 02:55:40;;;;;;;;;;;;;;;16.35;46.97;95756.63;4975759;28;20019;-77
2023/08/24 02:58:05;;;;;;;;;;;;;;;16.44;46.92;95761.78;4976448;28;20065;-77
2023/08/24 03:00:30;;;;;;;;;;;;;;;16.51;46.65;95751.84;4975270;28;19921;-77
2023/08/24 03:02:56;;;;;;;;;;;;;;;16.55;46.51;95749.56;4974017;28;20040;-77
2023/08/24 03:05:21;;;;;;;;;;;;;;;16.64;46.42;95756.34;4974135;28;19965;-77
2023/08/24 03:07:46;;;;;;;;;;;;;;;16.68;46.33;95752.19;4975549;28;20354;-75
2023/08/24 03:10:12;;;;;;;;;;;;;;;16.64;46.65;95746.41;4975054;28;19949;-77
2023/08/24 03:12:37;;;;;;;;;;;;;;;16.61;46.75;95740.63;4958002;28;19937;-76
2023/08/24 03:15:03;;;;;;;;;;;;;;;16.58;46.66;95736.50;4975541;28;20460;-76
2023/08/24 03:17:28;;;;;;;;;;;;;;;16.53;46.78;95747.09;4957579;28;19949;-77
2023/08/24 03:19:53;;;;;;;;;;;;;;;16.57;46.69;95744.78;4968161;28;19925;-76
2023/08/24 03:22:19;;;;;;;;;;;;;;;16.62;46.39;95748.47;4977548;28;19918;-77
2023/08/24 03:24:44;;;;;;;;;;;;;;;16.64;46.47;95743.72;4973886;28;19930;-77
2023/08/24 03:27:09;;;;;;;;;;;;;;;16.71;46.45;95746.38;4974183;28;19980;-77
2023/08/24 03:29:34;;;;;;;;;;;;;;;16.69;46.68;95753.00;4974640;28;20129;-77
2023/08/24 03:31:59;;;;;;;;;;;;;;;16.75;46.46;95739.53;4973564;28;19921;-76
2023/08/24 03:34:26;;;;;;;;;;;;;;;16.90;46.07;95743.81;4973352;28;20044;-77
2023/08/24 03:36:52;;;;;;;;;;;;;;;17.00;46.02;95737.97;4973545;28;20481;-76
2023/08/24 03:39:17;;;;;;;;;;;;;;;17.05;45.87;95737.28;4973212;28;19981;-77
2023/08/24 03:41:42;;;;;;;;;;;;;;;17.11;45.42;95731.06;4973617;28;20378;-76
2023/08/24 03:44:07;;;;;;;;;;;;;;;17.19;45.29;95730.81;4961048;28;19933;-77
2023/08/24 03:46:33;;;;;;;;;;;;;;;17.28;45.66;95728.69;4954976;28;20007;-77
2023/08/24 03:48:59;;;;;;;;;;;;;;;17.36;45.51;95722.19;4972946;28;19957;-78
2023/08/24 03:51:24;;;;;;;;;;;;;;;17.40;45.01;95726.09;4972761;28;19922;-77
2023/08/24 03:53:49;;;;;;;;;;;;;;;17.45;45.26;95723.59;4975307;28;20099;-77
2023/08/24 03:56:14;;;;;;;;;;;;;;;17.52;45.17;95715.47;4974537;28;20243;-77
2023/08/24 03:58:39;;;;;;;;;;;;;;;17.57;44.99;95702.16;4972795;28;19922;-77
2023/08/24 04:01:09;;;;;;;;;;;;;;;17.63;45.13;95703.13;4972697;28;20700;-77
2023/08/24 04:03:34;;;;;;;;;;;;;;;17.66;44.86;95710.78;4971649;28;20469;-77
2023/08/24 04:06:00;;;;;;;;;;;;;;;17.65;44.64;95701.06;4974650;28;19948;-77
2023/08/24 04:08:25;;;;;;;;;;;;;;;17.69;44.68;95698.75;4972963;28;20407;-77
2023/08/24 04:10:50;;;;;;;;;;;;;;;17.65;44.75;95701.06;4972546;28;19933;-77
2023/08/24 04:13:15;;;;;;;;;;;;;;;17.61;44.89;95699.88;4973327;28;19968;-78
2023/08/24 04:15:40;;;;;;;;;;;;;;;17.56;44.58;95702.38;4974527;28;20028;-77
2023/08/24 04:18:06;;;;;;;;;;;;;;;17.54;44.76;95716.88;4956596;28;19925;-76
2023/08/24 04:20:31;;;;;;;;;;;;;;;17.53;44.86;95722.47;4972483;28;20294;-77
2023/08/24 04:22:56;;;;;;;;;;;;;;;17.45;45.04;95723.59;4973796;28;19925;-77
2023/08/24 04:25:21;;;;;;;;;;;;;;;17.45;45.03;95734.38;4973036;28;20078;-77
2023/08/24 04:27:47;;;;;;;;;;;;;;;17.71;44.53;95745.94;4972437;28;20021;-76
2023/08/24 04:30:13;;;;;;;;;;;;;;;17.60;43.92;95754.72;4972991;28;19969;-76
2023/08/24 04:32:39;;;;;;;;;;;;;;;17.56;45.04;95758.91;4974219;28;20275;-77
2023/08/24 04:35:04;;;;;;;;;;;;;;;17.68;44.46;95773.31;4971108;28;20045;-77
2023/08/24 04:37:29;;;;;;;;;;;;;;;17.98;43.69;95780.72;4973267;28;20426;-76
2023/08/24 04:39:55;;;;;;;;;;;;;;;18.08;43.47;95793.69;4973531;28;20383;-74
2023/08/24 04:42:20;;;;;;;;;;;;;;;18.17;42.87;95811.22;4972614;28;19964;-76
2023/08/24 04:44:45;;;;;;;;;;;;;;;18.38;43.42;95821.78;4974988;28;20366;-76
2023/08/24 04:47:11;;;;;;;;;;;;;;;18.33;43.39;95818.94;4971865;28;19930;-75
2023/08/24 04:49:37;;;;;;;;;;;;;;;18.36;43.23;95819.31;4970267;28;20322;-76
2023/08/24 04:52:02;;;;;;;;;;;;;;;18.50;42.83;95824.56;4972797;28;19957;-76
2023/08/24 04:54:27;;;;;;;;;;;;;;;18.62;43.00;95844.38;4971707;28;19933;-77
2023/08/24 04:56:52;;;;;;;;;;;;;;;18.73;42.79;95844.69;4972215;28;20658;-76
2023/08/24 04:59:18;;;;;;;;;;;;;;;18.78;42.32;95845.66;4973810;28;19925;-75
2023/08/24 05:01:43;;;;;;;;;;;;;;;18.72;42.78;95830.38;4955572;28;19921;-76
2023/08/24 05:04:08;;;;;;;;;;;;;;;18.65;43.21;95843.94;4972455;28;20037;-76
2023/08/24 05:06:33;;;;;;;;;;;;;;;18.65;43.11;95837.72;4971989;28;19964;-74
2023/08/24 05:08:59;;;;;;;;;;;;;;;18.71;42.85;95835.97;4971743;28;19917;-74
2023/08/24 05:11:26;;;;;;;;;;;;;;;18.80;44.23;95845.44;4955534;28;19957;-74
2023/08/24 05:13:51;;;;;;;;;;;;;;;18.79;43.95;95847.31;4971892;28;20390;-76
2023/08/24 05:16:16;;;;;;;;;;;;;;;18.83;43.75;95847.66;4955431;28;19921;-76
2023/08/24 05:18:42;;;;;;;;;;;;;;;18.88;43.23;95852.38;4970936;28;20295;-76
2023/08/24 05:21:07;;;;;;;;;;;;;;;18.86;43.76;95849.91;4973978;28;20775;-76
2023/08/24 05:23:32;;;;;;;;;;;;;;;18.87;43.35;95848.06;4971938;28;19929;-76
2023/08/24 05:25:58;;;;;;;;;;;;;;;18.87;44.14;95840.75;4956184;28;20067;-75
2023/08/24 05:28:26;;;;;;;;;;;;;;;18.84;43.96;95833.16;4971870;28;20322;-74
2023/08/24 05:30:52;;;;;;;;;;;;;;;18.84;44.40;95843.09;4972481;28;20141;-76
2023/08/24 05:33:17;;;;;;;;;;;;;;;18.80;44.47;95843.53;4971155;28;19926;-75
2023/08/24 05:35:43;;;;;;;;;;;;;;;18.77;44.70;95844.00;4973596;28;19983;-74
2023/08/24 05:38:08;;;;;;;;;;;;;;;18.80;44.31;95846.25;4976940;28;19922;-74
2023/08/24 05:40:34;;;;;;;;;;;;;;;18.82;44.33;95849.56;4958975;28;19929;-75
2023/08/24 05:42:59;;;;;;;;;;;;;;;18.80;45.37;95848.94;4974797;28;19948;-75
2023/08/24 05:45:24;;;;;;;;;;;;;;;18.85;44.11;95855.53;4974053;28;19957;-76
2023/08/24 05:47:50;;;;;;;;;;;;;;;18.87;45.44;95856.13;4977868;28;20347;-77
2023/08/24 05:50:15;;;;;;;;;;;;;;;18.76;46.36;95845.06;4989540;28;20431;-77
2023/08/24 05:52:40;;;;;;;;;;;;;;;18.79;45.24;95849.16;4992224;28;19933;-77
2023/08/24 05:55:05;;;;;;;;;;;;;;;18.82;45.94;95849.56;4989917;28;19922;-77
2023/08/24 05:57:31;;;;;;;;;;;;;;;18.76;45.45;95828.88;4990649;28;19932;-77
2023/08/24 05:59:56;;;;;;;;;;;;;;;18.75;46.87;95807.53;4991657;28;19906;-77
2023/08/24 06:02:21;;;;;;;;;;;;;;;18.69;47.44;95793.06;4991265;28;19936;-78
2023/08/24 06:04:46;;;;;;;;;;;;;;;18.69;46.90;95793.91;4991077;28;20298;-78
2023/08/24 06:07:12;;;;;;;;;;;;;;;18.72;46.62;95770.22;4970729;28;19929;-77
2023/08/24 06:09:37;;;;;;;;;;;;;;;18.67;47.12;95747.44;4986758;28;19957;-77
2023/08/24 06:12:02;;;;;;;;;;;;;;;18.63;46.24;95737.38;4991417;28;19937;-78
2023/08/24 06:14:28;;;;;;;;;;;;;;;18.79;45.27;95750.22;4996528;28;20135;-77
2023/08/24 06:16:53;;;;;;;;;;;;;;;18.75;46.99;95757.13;4998139;28;20000;-78
2023/08/24 06:19:18;;;;;;;;;;;;;;;18.74;45.26;95750.09;4969753;28;20010;-72
2023/08/24 06:21:43;;;;;;;;;;;;;;;18.72;42.90;95748.66;4969535;28;19921;-72
2023/08/24 06:24:09;;;;;;;;;;;;;;;18.72;43.53;95740.56;4970285;28;19937;-72
2023/08/24 06:26:34;;;;;;;;;;;;;;;18.73;47.74;95753.81;4964641;28;19926;-72
2023/08/24 06:29:00;;;;;;;;;;;;;;;18.64;44.08;95741.72;4964956;28;20411;-72
2023/08/24 06:31:25;;;;;;;;;;;;;;;18.72;43.60;95727.06;4964108;28;20502;-72
2023/08/24 06:33:50;;;;;;;;;;;;;;;18.88;44.73;95722.94;4966283;28;20070;-71
2023/08/24 06:36:15;;;;;;;;;;;;;;;19.01;44.65;95724.63;4970911;28;20389;-71
2023/08/24 06:38:41;;;;;;;;;;;;;;;19.17;43.28;95710.47;4969540;28;19981;-71
2023/08/24 06:41:10;;;;;;;;;;;;;;;19.27;45.55;95703.69;4972966;28;19944;-72
2023/08/24 06:43:38;;;;;;;;;;;;;;;19.36;46.04;95690.69;4974368;28;19969;-71
2023/08/24 06:46:04;;;;;;;;;;;;;;;19.49;42.30;95678.84;4973291;28;19925;-72
2023/08/24 06:48:29;;;;;;;;;;;;;;;19.57;42.31;95670.41;4969606;28;20418;-72
2023/08/24 06:50:54;;;;;;;;;;;;;;;19.62;42.51;95678.66;4972348;28;19984;-72
2023/08/24 06:53:19;;;;;;;;;;;;;;;19.67;42.95;95672.50;4975107;28;19918;-71
2023/08/24 06:55:44;;;;;;;;;;;;;;;19.68;42.41;95682.28;4971308;28;19926;-71
2023/08/24 06:58:10;;;;;;;;;;;;;;;19.87;42.42;95669.47;4974969;28;20175;-72
2023/08/24 07:00:35;;;;;;;;;;;;;;;19.96;41.70;95656.44;4972742;28;19922;-72
2023/08/24 07:03:00;;;;;;;;;;;;;;;20.14;41.38;95652.75;4970967;28;19929;-72
2023/08/24 07:05:26;;;;;;;;;;;;;;;20.27;40.70;95645.44;4973394;28;20181;-72
2023/08/24 07:07:51;;;;;;;;;;;;;;;20.55;40.48;95641.09;4971039;28;19947;-71
2023/08/24 07:10:17;;;;;;;;;;;;;;;20.44;40.37;95646.34;4965999;28;19930;-71
2023/08/24 07:12:44;;;;;;;;;;;;;;;20.61;39.86;95640.16;4967990;28;19926;-72
2023/08/24 07:15:10;;;;;;;;;;;;;;;21.02;38.96;95639.25;4966885;28;20024;-72
2023/08/24 07:17:35;;;;;;;;;;;;;;;21.06;39.09;95640.41;4974265;28;19918;-72
2023/08/24 07:20:00;;;;;;;;;;;;;;;20.95;38.98;95642.13;4972894;28;20298;-72
2023/08/24 07:22:26;;;;;;;;;;;;;;;21.24;38.69;95639.31;4974404;28;20017;-71
2023/08/24 07:24:52;;;;;;;;;;;;;;;21.17;38.19;95630.56;4972468;28;20300;-73
2023/08/24 07:27:17;;;;;;;;;;;;;;;21.35;38.21;95633.03;4972375;28;19925;-72
2023/08/24 07:29:43;;;;;;;;;;;;;;;21.63;37.65;95638.59;4973189;28;20505;-71
2023/08/24 07:32:08;;;;;;;;;;;;;;;21.61;37.74;95636.13;4973945;28;19926;-71
2023/08/24 07:34:34;;;;;;;;;;;;;;;21.76;37.75;95634.72;4973759;28;19925;-72
2023/08/24 07:36:59;;;;;;;;;;;;;;;21.84;37.57;95628.03;4964995;28;19949;-72
2023/08/24 07:39:24;;;;;;;;;;;;;;;21.80;38.22;95622.31;4964361;28;19972;-72
2023/08/24 07:41:49;;;;;;;;;;;;;;;21.95;36.77;95631.72;4961957;28;20578;-73
2023/08/24 07:44:15;;;;;;;;;;;;;;;21.74;38.35;95629.56;4964307;28;20432;-73
2023/08/24 07:46:40;;;;;;;;;;;;;;;22.05;39.47;95625.63;4963127;28;20366;-72
2023/08/24 07:49:05;;;;;;;;;;;;;;;22.01;36.68;95620.72;4962441;28;20491;-71
2023/08/24 07:51:32;;;;;;;;;;;;;;;22.19;36.25;95618.75;4962663;28;19964;-73
2023/08/24 07:53:57;;;;;;;;;;;;;;;22.20;36.33;95627.72;4964122;28;20137;-72
2023/08/24 07:56:22;;;;;;;;;;;;;;;22.56;36.42;95625.41;4963501;28;20454;-71
2023/08/24 07:58:48;;;;;;;;;;;;;;;22.57;36.17;95623.53;4962023;28;19965;-73
2023/08/24 08:01:13;;;;;;;;;;;;;;;22.79;35.50;95610.72;4963962;28;19925;-71
2023/08/24 08:03:38;;;;;;;;;;;;;;;23.07;34.76;95618.03;4962310;28;20236;-72
2023/08/24 08:06:04;;;;;;;;;;;;;;;23.03;35.18;95617.72;4964623;28;19988;-73
2023/08/24 08:08:29;;;;;;;;;;;;;;;23.15;35.48;95607.50;4963654;28;19933;-72
2023/08/24 08:10:58;;;;;;;;;;;;;;;23.24;34.58;95613.28;4965537;28;19984;-72
2023/08/24 08:13:23;;;;;;;;;;;;;;;23.27;34.23;95599.19;4964443;28;20378;-72
2023/08/24 08:15:49;;;;;;;;;;;;;;;23.40;33.40;95599.81;4967955;28;19925;-72
2023/08/24 08:18:14;;;;;;;;;;;;;;;23.32;33.95;95609.28;4966221;28;19925;-72
2023/08/24 08:20:39;;;;;;;;;;;;;;;23.27;34.26;95610.06;4968443;28;19926;-73
2023/08/24 08:23:04;;;;;;;;;;;;;;;23.48;34.12;95614.81;4972228;28;19925;-73
2023/08/24 08:25:30;;;;;;;;;;;;;;;23.55;32.88;95618.94;4973483;28;19930;-72
2023/08/24 08:27:55;;;;;;;;;;;;;;;23.98;32.95;95622.72;4963639;28;19926;-76
2023/08/24 08:30:20;;;;;;;;;;;;;;;23.93;32.90;95623.53;4974086;28;19929;-76
2023/08/24 08:32:45;;;;;;;;;;;;;;;23.66;32.05;95613.56;4950310;28;20375;-77
2023/08/24 08:35:11;;;;;;;;;;;;;;;23.72;32.95;95614.41;4973046;28;19967;-76
2023/08/24 08:37:36;;;;;;;;;;;;;;;23.84;32.18;95606.91;4973246;28;19980;-76
2023/08/24 08:40:05;;;;;;;;;;;;;;;23.80;32.53;95616.66;4972450;28;19930;-76
2023/08/24 08:42:31;;;;;;;;;;;;;;;24.31;32.09;95616.03;4962055;28;19922;-76
2023/08/24 08:44:56;;;;;;;;;;;;;;;24.55;29.93;95618.34;4966272;28;20501;-76
2023/08/24 08:47:22;;;;;;;;;;;;;;;24.77;30.09;95613.72;4966889;28;20492;-76
2023/08/24 08:49:48;;;;;;;;;;;;;;;24.72;30.96;95614.56;4964556;28;19930;-78
2023/08/24 08:52:13;;;;;;;;;;;;;;;25.00;30.41;95611.59;4948333;28;19929;-76
2023/08/24 08:54:38;;;;;;;;;;;;;;;25.17;29.08;95605.88;4965232;28;20253;-77
2023/08/24 08:57:03;;;;;;;;;;;;;;;24.96;28.64;95604.00;4966290;28;20183;-78
2023/08/24 08:59:30;;;;;;;;;;;;;;;25.02;29.01;95595.81;4945882;28;20105;-77
2023/08/24 09:01:55;;;;;;;;;;;;;;;25.22;28.59;95595.00;4962753;28;20517;-76
2023/08/24 09:04:20;;;;;;;;;;;;;;;25.14;30.17;95593.63;4963109;28;20051;-78
2023/08/24 09:06:46;;;;;;;;;;;;;;;25.22;29.65;95584.91;4947141;28;20433;-77
2023/08/24 09:09:11;;;;;;;;;;;;;;;25.13;29.18;95586.56;4950601;28;19918;-76
2023/08/24 09:11:36;;;;;;;;;;;;;;;25.19;30.08;95593.63;4951762;28;19952;-76
2023/08/24 09:14:02;;;;;;;;;;;;;;;25.19;29.70;95593.63;4954448;28;19921;-76
2023/08/24 09:16:30;;;;;;;;;;;;;;;25.12;29.92;95584.91;4973172;28;19957;-77
2023/08/24 09:18:55;;;;;;;;;;;;;;;25.27;29.94;95591.44;4977542;28;20040;-78
2023/08/24 09:21:21;;;;;;;;;;;;;;;25.41;29.46;95573.44;4978095;28;19918;-77
2023/08/24 09:23:53;;;;;;;;;;;;;;;25.58;29.12;95575.06;4975864;28;20036;-76
2023/08/24 09:26:31;;;;;;;;;;;;;;;25.63;27.74;95574.25;4976961;28;19999;-74
2023/08/24 09:28:56;;;;;;;;;;;;;;;25.56;29.44;95569.09;4974554;28;20268;-76
2023/08/24 09:31:22;;;;;;;;;;;;;;;25.75;28.83;95566.56;4973804;28;19926;-76
2023/08/24 09:33:47;;;;;;;;;;;;;;;26.18;28.35;95547.06;4974679;28;20361;-77
2023/08/24 09:36:16;;;;;;;;;;;;;;;26.14;28.30;95546.00;4976905;28;19976;-76
2023/08/24 09:38:48;;;;;;;;;;;;;;;26.47;27.47;95550.97;4972997;28;19952;-76
2023/08/24 09:41:13;;;;;;;;;;;;;;;26.88;27.74;95542.50;4960386;28;20036;-75
2023/08/24 09:43:39;;;;;;;;;;;;;;;26.74;27.22;95542.34;4978924;28;20044;-77
2023/08/24 09:46:06;;;;;;;;;;;;;;;26.58;27.97;95524.47;4963799;28;19984;-76
2023/08/24 09:48:31;;;;;;;;;;;;;;;26.59;27.83;95531.53;4975053;28;20017;-76
2023/08/24 09:50:57;;;;;;;;;;;;;;;27.30;27.06;95528.50;4978694;28;19946;-75
2023/08/24 09:53:22;;;;;;;;;;;;;;;27.30;27.34;95522.22;4963890;28;19918;-76
2023/08/24 09:55:54;;;;;;;;;;;;;;;27.01;27.50;95510.16;4979335;28;20065;-76
2023/08/24 09:58:20;;;;;;;;;;;;;;;27.54;26.96;95518.66;4976688;28;19922;-76
2023/08/24 10:00:46;;;;;;;;;;;;;;;27.58;26.63;95515.06;4975678;28;20512;-75
2023/08/24 10:03:11;;;;;;;;;;;;;;;27.42;26.93;95508.94;4975435;28;20021;-76
2023/08/24 10:05:36;;;;;;;;;;;;;;;27.58;25.49;95512.34;4977870;28;19953;-77
2023/08/24 10:08:02;;;;;;;;;;;;;;;27.78;26.24;95505.03;4979661;28;19972;-76
2023/08/24 10:10:28;;;;;;;;;;;;;;;27.63;26.52;95503.31;4952630;28;19922;-76
2023/08/24 10:13:00;;;;;;;;;;;;;;;27.59;26.94;95513.13;4975056;28;20216;-76
2023/08/24 10:15:26;;;;;;;;;;;;;;;27.41;26.57;95506.50;4971321;28;20328;-76
2023/08/24 10:17:51;;;;;;;;;;;;;;;27.69;26.36;95502.13;4981774;28;19922;-76
2023/08/24 10:20:18;;;;;;;;;;;;;;;27.78;25.95;95497.59;4978288;28;20163;-77
2023/08/24 10:22:43;;;;;;;;;;;;;;;28.41;25.53;95497.59;4957251;28;20180;-76
2023/08/24 10:25:09;;;;;;;;;;;;;;;28.55;24.25;95505.06;4953328;28;20532;-76
2023/08/24 10:27:34;;;;;;;;;;;;;;;28.18;25.42;95518.47;4959561;28;20343;-75
2023/08/24 10:29:59;;;;;;;;;;;;;;;28.30;25.78;95525.44;4957119;28;20040;-76
2023/08/24 10:32:25;;;;;;;;;;;;;;;28.93;25.43;95521.44;4975035;28;19961;-77
2023/08/24 10:34:50;;;;;;;;;;;;;;;28.89;25.39;95531.38;4975873;28;19922;-76
2023/08/24 10:37:15;;;;;;;;;;;;;;;28.88;24.49;95531.66;4974997;28;19921;-76
2023/08/24 10:39:45;;;;;;;;;;;;;;;29.30;24.94;95540.81;4973360;28;20183;-76
2023/08/24 10:42:10;;;;;;;;;;;;;;;29.20;24.92;95541.03;4974476;28;19984;-77
2023/08/24 10:44:36;;;;;;;;;;;;;;;29.25;26.02;95531.88;4975825;28;20379;-76
2023/08/24 10:47:14;;;;;;;;;;;;;;;29.02;24.79;95539.91;4958146;28;19926;-77
2023/08/24 10:49:43;;;;;;;;;;;;;;;29.04;25.00;95533.03;4972309;28;19925;-77
2023/08/24 10:52:19;;;;;;;;;;;;;;;28.81;25.39;95532.06;4973142;28;20087;-76
2023/08/24 10:54:45;;;;;;;;;;;;;;;28.87;25.34;95533.59;4971633;28;19976;-76
2023/08/24 10:57:17;;;;;;;;;;;;;;;29.29;25.04;95535.63;4968769;28;20119;-75
2023/08/24 10:59:43;;;;;;;;;;;;;;;29.14;25.41;95537.53;4954426;28;19926;-76
2023/08/24 11:02:08;;;;;;;;;;;;;;;29.14;25.27;95537.53;4967537;28;19968;-76
2023/08/24 11:04:33;;;;;;;;;;;;;;;29.26;25.51;95531.59;4947970;28;19976;-76
2023/08/24 11:07:01;;;;;;;;;;;;;;;29.17;25.58;95536.16;4965068;28;20213;-75
2023/08/24 11:09:27;;;;;;;;;;;;;;;29.03;25.66;95533.34;4964773;28;20610;-76
2023/08/24 11:12:10;;;;;;;;;;;;;;;29.06;25.99;95524.53;4964538;28;20029;-77
2023/08/24 11:14:36;;;;;;;;;;;;;;;29.53;25.21;95538.22;4962331;28;19977;-76
2023/08/24 11:17:16;;;;;;;;;;;;;;;29.55;25.58;95541.47;4961477;28;19926;-76
2023/08/24 11:19:47;;;;;;;;;;;;;;;29.66;25.25;95525.63;4962702;28;20297;-75
2023/08/24 11:22:12;;;;;;;;;;;;;;;29.83;25.04;95512.44;4964049;28;20379;-76
2023/08/24 11:24:37;;;;;;;;;;;;;;;30.16;25.29;95510.38;4964492;28;19934;-76
2023/08/24 11:27:02;;;;;;;;;;;;;;;29.91;24.85;95508.97;4961331;28;19937;-76
2023/08/24 11:29:28;;;;;;;;;;;;;;;30.14;24.37;95500.81;4962405;28;19977;-76
2023/08/24 11:31:53;;;;;;;;;;;;;;;29.93;24.74;95498.50;4963023;28;20454;-76
2023/08/24 11:34:18;;;;;;;;;;;;;;;30.16;24.42;95488.44;4948789;28;19922;-76
2023/08/24 11:36:45;;;;;;;;;;;;;;;30.31;24.84;95479.03;4964215;28;19969;-77
2023/08/24 11:39:19;;;;;;;;;;;;;;;30.40;24.25;95475.53;4964828;28;19925;-76
2023/08/24 11:42:00;;;;;;;;;;;;;;;30.44;24.76;95495.75;4967094;28;20001;-76
2023/08/24 11:44:25;;;;;;;;;;;;;;;30.33;25.03;95495.19;4965985;28;20169;-76
2023/08/24 11:46:51;;;;;;;;;;;;;;;30.71;25.17;95491.28;4967660;28;19929;-75
2023/08/24 11:49:16;;;;;;;;;;;;;;;30.96;25.12;95494.53;4972860;28;19926;-75
2023/08/24 11:51:41;;;;;;;;;;;;;;;31.24;24.19;95490.78;4975286;28;20383;-77
2023/08/24 11:54:08;;;;;;;;;;;;;;;31.24;23.75;95502.63;4980143;28;19922;-76
2023/08/24 11:56:33;;;;;;;;;;;;;;;31.35;23.73;95487.47;4976911;28;19926;-77
2023/08/24 11:58:59;;;;;;;;;;;;;;;31.38;23.16;95490.69;4974057;28;20350;-77
2023/08/24 12:01:25;;;;;;;;;;;;;;;31.39;23.30;95478.56;4973049;28;20425;-77
2023/08/24 12:03:51;;;;;;;;;;;;;;;31.58;23.66;95481.84;4975572;28;19972;-76
2023/08/24 12:06:16;;;;;;;;;;;;;;;31.63;22.84;95475.44;4975608;28;20371;-76
2023/08/24 12:08:42;;;;;;;;;;;;;;;31.58;23.21;95470.84;4968164;28;20335;-77
2023/08/24 12:11:11;;;;;;;;;;;;;;;31.65;22.87;95453.13;4969114;28;19926;-76
2023/08/24 12:13:37;;;;;;;;;;;;;;;31.79;22.81;95456.56;4954766;28;19928;-75
2023/08/24 12:16:03;;;;;;;;;;;;;;;31.85;22.84;95455.25;4968204;28;20069;-77
2023/08/24 12:18:28;;;;;;;;;;;;;;;32.36;23.22;95462.28;4965164;28;20021;-77
2023/08/24 12:20:53;;;;;;;;;;;;;;;32.53;22.18;95468.91;4967774;28;19926;-77
2023/08/24 12:23:18;;;;;;;;;;;;;;;32.30;22.80;95475.41;4968437;28;19988;-77
2023/08/24 12:25:44;;;;;;;;;;;;;;;32.39;22.87;95474.59;4967360;28;20105;-77
2023/08/24 12:28:10;;;;;;;;;;;;;;;32.21;22.45;95489.16;4967539;28;20020;-77
2023/08/24 12:30:51;;;;;;;;;;;;;;;32.06;22.64;95486.84;4966969;28;19973;-76
2023/08/24 12:33:26;;;;;;;;;;;;;;;32.00;23.55;95483.44;4971252;28;19925;-77
2023/08/24 12:35:52;;;;;;;;;;;;;;;32.31;22.76;95478.94;4950015;28;19930;-77
2023/08/24 12:38:17;;;;;;;;;;;;;;;32.65;22.05;95485.59;4953930;28;19975;-76
2023/08/24 12:40:42;;;;;;;;;;;;;;;32.73;22.40;95495.00;4952014;28;19964;-76